Weather at Stórikroppur Airport

Public forecast

Using degrees Celsius for public forecast. Weather courtesy of forecast.io.

Closest aviation weather report (METAR) to Stórikroppur Airport

Closest report is Reykjavik Airport, 32.5 nm (60.2 km) SSW. Retrieved 2021/01/23 07:00 UTC (8 minutes ago):

BIRK 230700Z 02020G34KT 360V060 9999 FEW024 M02/M06 Q1008

Closest aviation forecast (TAF) to Stórikroppur Airport

Closest forecast is Reykjavik Airport, 32.5 nm (60.2 km) SSW. Retrieved 2021/01/23 09:48 UTC (0 seconds ago):

TAF TAF BIRK 230745Z 2309/2409 02022G33KT 9999 SCT025 TX00/2322Z TNM02/2309Z TEMPO 2309/2406 01028G44KT